Time;durP1;ratioP1;P1;durP2;ratioP2;P2;SDS_P1;SDS_P2;PMS_P1;PMS_P2;Temp;Humidity;BMP_temperature;BMP_pressure;BME280_temperature;BME280_humidity;BME280_pressure;Samples;Min_cycle;Max_cycle;Signal;HPM_P1;HPM_P2
2022/05/22 00:00:25;;;;;;;1.80;1.10;;;9.10;99.90;;;;;;5091267;28;20044;-77
2022/05/22 00:02:53;;;;;;;2.45;1.17;;;9.10;99.90;;;;;;5074568;28;20109;-77
2022/05/22 00:05:21;;;;;;;1.60;1.05;;;9.10;99.90;;;;;;5091137;28;20048;-77
2022/05/22 00:07:47;;;;;;;2.22;0.77;;;9.10;99.90;;;;;;5074586;28;20035;-77
2022/05/22 00:10:14;;;;;;;0.90;0.70;;;9.10;99.90;;;;;;5092490;28;20071;-77
2022/05/22 00:12:41;;;;;;;1.20;0.70;;;9.10;99.90;;;;;;5091381;28;20125;-77
2022/05/22 00:15:08;;;;;;;0.50;0.50;;;9.00;99.90;;;;;;5091290;28;20070;-77
2022/05/22 00:17:34;;;;;;;1.02;0.65;;;9.00;99.90;;;;;;5074097;28;20475;-77
2022/05/22 00:19:59;;;;;;;1.25;0.77;;;9.00;99.90;;;;;;5090851;28;20058;-77
2022/05/22 00:22:25;;;;;;;1.15;0.80;;;8.90;99.90;;;;;;5090997;28;20048;-77
2022/05/22 00:24:52;;;;;;;0.98;0.70;;;8.90;99.90;;;;;;5092341;28;20439;-77
2022/05/22 00:27:18;;;;;;;1.00;0.85;;;8.90;99.90;;;;;;5090839;28;20101;-77
2022/05/22 00:29:44;;;;;;;;;;;8.80;99.90;;;;;;5092534;28;20123;-77
2022/05/22 00:32:10;;;;;;;1.05;0.80;;;8.80;99.90;;;;;;5090930;28;20027;-78
2022/05/22 00:34:37;;;;;;;1.63;1.13;;;8.70;99.90;;;;;;5090583;28;20077;-77
2022/05/22 00:37:03;;;;;;;2.65;1.40;;;8.70;99.90;;;;;;5073881;28;20040;-77
2022/05/22 00:39:29;;;;;;;2.03;1.40;;;8.60;99.90;;;;;;5090504;28;20040;-76
2022/05/22 00:41:57;;;;;;;1.58;1.10;;;8.60;99.90;;;;;;5073765;28;20050;-77
2022/05/22 00:44:24;;;;;;;1.80;1.17;;;8.50;99.90;;;;;;5090466;28;20047;-77
2022/05/22 00:46:50;;;;;;;2.13;1.65;;;8.50;99.90;;;;;;5090831;28;20043;-77
2022/05/22 00:49:18;;;;;;;2.13;1.40;;;8.50;99.90;;;;;;5090587;28;20043;-77
2022/05/22 00:51:53;;;;;;;1.92;1.10;;;8.40;99.90;;;;;;5090355;28;20085;-77
2022/05/22 00:54:38;;;;;;;1.95;1.20;;;8.40;99.90;;;;;;5090516;28;20052;-77
2022/05/22 00:57:23;;;;;;;2.13;0.98;;;8.40;99.90;;;;;;5090606;28;20040;-77
2022/05/22 01:00:13;;;;;;;2.00;0.70;;;8.50;99.90;;;;;;5091443;28;20093;-77
2022/05/22 01:05:23;;;;;;;0.93;0.60;;;8.60;99.90;;;;;;5091320;28;20123;-77
2022/05/22 01:07:49;;;;;;;1.42;0.70;;;8.50;99.90;;;;;;5090390;28;20503;-78
2022/05/22 01:10:15;;;;;;;0.70;0.50;;;8.50;99.90;;;;;;5090260;28;20122;-78
2022/05/22 01:12:42;;;;;;;1.27;0.70;;;8.40;99.90;;;;;;5073684;28;20357;-78
2022/05/22 01:15:11;;;;;;;0.95;0.68;;;8.40;99.90;;;;;;5091459;28;20047;-78
2022/05/22 01:17:46;;;;;;;0.52;0.50;;;8.40;99.90;;;;;;5073216;28;20105;-78
2022/05/22 01:20:12;;;;;;;0.70;0.50;;;8.40;99.90;;;;;;5089738;28;20105;-78
2022/05/22 01:22:39;;;;;;;1.02;0.60;;;8.30;99.90;;;;;;5089891;28;20546;-78
2022/05/22 01:25:05;;;;;;;0.90;0.70;;;8.30;99.90;;;;;;5088949;28;20040;-78
2022/05/22 01:27:31;;;;;;;1.50;0.75;;;8.30;99.90;;;;;;5089824;28;20119;-77
2022/05/22 01:30:05;;;;;;;0.82;0.70;;;8.30;99.90;;;;;;5089996;28;20119;-78
2022/05/22 01:32:35;;;;;;;0.68;0.50;;;8.30;99.90;;;;;;5089899;28;20479;-77
2022/05/22 01:35:00;;;;;;;0.52;0.50;;;8.30;99.90;;;;;;5089944;28;20121;-77
2022/05/22 01:37:26;;;;;;;0.95;0.70;;;8.20;99.90;;;;;;5090200;28;20472;-78
2022/05/22 01:39:52;;;;;;;1.17;1.00;;;8.20;99.90;;;;;;5089965;28;20471;-77
2022/05/22 01:42:18;;;;;;;1.08;0.70;;;8.20;99.90;;;;;;5089756;28;20106;-77
2022/05/22 01:44:44;;;;;;;1.13;0.60;;;8.20;99.90;;;;;;5089914;28;20040;-77
2022/05/22 01:47:09;;;;;;;0.73;0.65;;;8.10;99.90;;;;;;5073005;28;20398;-77
2022/05/22 01:49:35;;;;;;;0.85;0.68;;;8.10;99.90;;;;;;5090008;28;20122;-78
2022/05/22 01:52:01;;;;;;;1.40;0.80;;;8.10;99.90;;;;;;5090202;28;20051;-77
2022/05/22 01:54:27;;;;;;;0.60;0.50;;;8.10;99.90;;;;;;5089900;28;20055;-77
2022/05/22 01:56:53;;;;;;;1.05;0.63;;;8.10;99.90;;;;;;5073311;28;20044;-77
2022/05/22 01:59:18;;;;;;;0.90;0.70;;;8.10;99.90;;;;;;5089796;28;20056;-78
2022/05/22 02:01:44;;;;;;;0.55;0.38;;;8.00;99.90;;;;;;5072243;28;20135;-78
2022/05/22 02:04:10;;;;;;;0.60;0.60;;;8.00;99.90;;;;;;5097102;28;20104;-77
2022/05/22 02:08:18;;;;;;;1.45;0.70;;;8.00;99.90;;;;;;5109018;28;20440;-77
2022/05/22 02:09:22;;;;;;;1.13;0.70;;;8.00;99.90;;;;;;5110009;28;20047;-78
2022/05/22 02:11:47;;;;;;;0.77;0.65;;;8.00;99.90;;;;;;5114044;28;20077;-77
2022/05/22 02:14:14;;;;;;;1.08;0.47;;;8.00;99.90;;;;;;5113969;28;20035;-77
2022/05/22 02:16:40;;;;;;;0.80;0.30;;;8.00;99.90;;;;;;5115338;28;20039;-76
2022/05/22 02:19:05;;;;;;;0.68;0.30;;;8.10;99.90;;;;;;5113914;28;20054;-77
2022/05/22 02:21:32;;;;;;;0.50;0.43;;;8.00;99.90;;;;;;5096710;28;20048;-78
2022/05/22 02:23:57;;;;;;;;;;;8.00;99.90;;;;;;5114023;28;20048;-77
2022/05/22 02:26:23;;;;;;;0.47;0.47;;;8.00;99.90;;;;;;5096510;28;19916;-77
2022/05/22 02:28:49;;;;;;;0.75;0.50;;;8.00;99.90;;;;;;5113787;28;20132;-77
2022/05/22 02:31:15;;;;;;;1.10;0.50;;;8.00;99.90;;;;;;5113650;28;20116;-78
2022/05/22 02:33:41;;;;;;;0.80;0.60;;;8.00;99.90;;;;;;5079548;28;20047;-77
2022/05/22 02:36:08;;;;;;;1.00;0.50;;;8.00;99.90;;;;;;5096396;28;20096;-78
2022/05/22 02:38:35;;;;;;;0.70;0.50;;;8.00;99.90;;;;;;5113463;28;20048;-78
2022/05/22 02:41:06;;;;;;;;;;;8.00;99.90;;;;;;5113512;28;20047;-78
2022/05/22 02:43:32;;;;;;;0.50;0.40;;;7.90;99.90;;;;;;5113127;28;19919;-78
2022/05/22 02:45:59;;;;;;;0.40;0.40;;;8.00;99.90;;;;;;5113260;28;20038;-77
2022/05/22 02:48:24;;;;;;;0.57;0.43;;;7.90;99.90;;;;;;5113319;28;20075;-77
2022/05/22 02:50:50;;;;;;;0.80;0.60;;;7.90;99.90;;;;;;5097225;28;20094;-77
2022/05/22 02:53:16;;;;;;;0.65;0.50;;;7.90;99.90;;;;;;5114574;28;20054;-77
2022/05/22 02:55:43;;;;;;;1.10;0.68;;;8.00;99.90;;;;;;5086598;28;20530;-77
2022/05/22 02:58:09;;;;;;;0.88;0.60;;;7.90;99.90;;;;;;5093103;28;20051;-77
2022/05/22 03:00:35;;;;;;;0.98;0.50;;;7.90;99.90;;;;;;5059066;28;20039;-77
2022/05/22 03:03:00;;;;;;;0.88;0.50;;;7.80;99.90;;;;;;5075656;28;20048;-77
2022/05/22 03:06:38;;;;;;;0.55;0.50;;;7.80;99.90;;;;;;5092434;28;20074;-77
2022/05/22 03:08:14;;;;;;;0.73;0.45;;;7.90;99.90;;;;;;5092263;28;20044;-77
2022/05/22 03:10:40;;;;;;;;;;;7.90;99.90;;;;;;5092465;28;20031;-77
2022/05/22 03:13:07;;;;;;;0.50;0.50;;;7.80;99.90;;;;;;5075349;28;19945;-77
2022/05/22 03:15:32;;;;;;;0.65;0.47;;;7.80;99.90;;;;;;5093330;28;20411;-77
2022/05/22 03:17:58;;;;;;;0.57;0.50;;;7.80;99.90;;;;;;5093525;28;20050;-77
2022/05/22 03:20:24;;;;;;;0.98;0.70;;;7.80;99.90;;;;;;5091648;28;20532;-77
2022/05/22 03:22:49;;;;;;;0.75;0.50;;;7.80;99.90;;;;;;5058009;28;20527;-77
2022/05/22 03:25:15;;;;;;;0.80;0.40;;;7.80;99.90;;;;;;5092342;28;20498;-77
2022/05/22 03:27:40;;;;;;;0.40;0.40;;;7.80;99.90;;;;;;5093524;28;20059;-77
2022/05/22 03:30:07;;;;;;;0.70;0.50;;;7.80;99.90;;;;;;5092100;28;20051;-77
2022/05/22 03:32:33;;;;;;;0.90;0.45;;;7.80;99.90;;;;;;5075250;28;20047;-78
2022/05/22 03:35:00;;;;;;;1.17;0.68;;;7.70;99.90;;;;;;5091742;28;20059;-77
2022/05/22 03:37:26;;;;;;;1.33;0.65;;;7.80;99.90;;;;;;5075514;28;20066;-78
2022/05/22 03:39:55;;;;;;;0.63;0.45;;;7.80;99.90;;;;;;5091769;28;20036;-77
2022/05/22 03:42:21;;;;;;;0.45;0.45;;;7.80;99.90;;;;;;5092312;28;20051;-77
2022/05/22 03:44:46;;;;;;;0.70;0.50;;;7.80;99.90;;;;;;5091129;28;20321;-77
2022/05/22 03:47:12;;;;;;;0.50;0.40;;;7.90;99.90;;;;;;5095343;28;20425;-77
2022/05/22 03:49:38;;;;;;;0.70;0.35;;;7.90;99.90;;;;;;5095032;28;20197;-77
2022/05/22 03:52:04;;;;;;;0.85;0.60;;;7.90;99.90;;;;;;5112007;28;20164;-78
2022/05/22 03:54:29;;;;;;;0.70;0.40;;;7.90;99.90;;;;;;5094811;28;20051;-78
2022/05/22 03:56:56;;;;;;;1.42;0.63;;;7.90;99.90;;;;;;5094881;28;20051;-77
2022/05/22 03:59:24;;;;;;;0.68;0.50;;;8.00;99.90;;;;;;5111715;28;20048;-77
2022/05/22 04:01:50;;;;;;;0.85;0.50;;;7.90;99.90;;;;;;5111683;28;20062;-77
2022/05/22 04:04:16;;;;;;;0.75;0.50;;;8.00;99.90;;;;;;5111392;28;20051;-78
2022/05/22 04:06:42;;;;;;;0.63;0.50;;;8.00;99.90;;;;;;5111410;28;20058;-77
2022/05/22 04:09:08;;;;;;;0.45;0.45;;;8.00;99.90;;;;;;5111744;28;20043;-79
2022/05/22 04:11:34;;;;;;;0.77;0.50;;;8.00;99.90;;;;;;5111621;28;20067;-78
2022/05/22 04:14:02;;;;;;;0.82;0.60;;;8.10;99.90;;;;;;5111631;28;20063;-77
2022/05/22 04:16:27;;;;;;;1.30;0.60;;;8.10;99.90;;;;;;5095030;28;20111;-78
2022/05/22 04:18:53;;;;;;;1.02;0.50;;;8.10;99.90;;;;;;5077446;28;20188;-78
2022/05/22 04:21:19;;;;;;;1.75;0.88;;;8.20;99.90;;;;;;5111535;28;20069;-77
2022/05/22 04:26:30;;;;;;;0.90;0.68;;;8.40;99.90;;;;;;5096819;28;20050;-78
2022/05/22 04:28:56;;;;;;;0.68;0.52;;;8.40;99.90;;;;;;5111123;28;20082;-78
2022/05/22 04:31:21;;;;;;;0.77;0.60;;;8.50;99.90;;;;;;5111272;28;20075;-78
2022/05/22 04:33:47;;;;;;;0.50;0.50;;;8.60;99.90;;;;;;5112314;28;20044;-78
2022/05/22 04:36:13;;;;;;;0.63;0.50;;;8.60;99.90;;;;;;5111472;28;20035;-78
2022/05/22 04:38:38;;;;;;;0.80;0.40;;;8.60;99.90;;;;;;5111058;28;20422;-78
2022/05/22 04:41:04;;;;;;;0.40;0.40;;;8.70;99.90;;;;;;5094332;28;20057;-78
2022/05/22 04:43:31;;;;;;;0.43;0.43;;;8.80;99.90;;;;;;5110943;28;20047;-78
2022/05/22 04:45:58;;;;;;;0.50;0.50;;;8.80;99.90;;;;;;5093696;28;20039;-78
2022/05/22 04:48:25;;;;;;;0.68;0.47;;;8.90;99.90;;;;;;5111150;28;20173;-78
2022/05/22 04:50:53;;;;;;;0.43;0.40;;;9.00;99.90;;;;;;5093646;28;20043;-78
2022/05/22 04:53:22;;;;;;;0.98;0.52;;;9.00;99.90;;;;;;5110710;28;20047;-78
2022/05/22 04:55:48;;;;;;;1.50;0.80;;;9.10;99.90;;;;;;5110518;28;20050;-77
2022/05/22 04:58:16;;;;;;;1.20;0.88;;;9.20;99.90;;;;;;5110499;28;20044;-77
2022/05/22 05:00:42;;;;;;;1.58;0.65;;;9.30;99.90;;;;;;5110808;28;20111;-77
2022/05/22 05:03:08;;;;;;;2.13;0.98;;;9.40;99.90;;;;;;5110623;28;20046;-78
2022/05/22 05:05:34;;;;;;;2.78;0.80;;;9.50;99.90;;;;;;5109933;28;20059;-77
2022/05/22 05:08:00;;;;;;;0.88;0.60;;;9.50;99.90;;;;;;5110633;28;20047;-77
2022/05/22 05:10:26;;;;;;;1.50;1.10;;;9.60;99.90;;;;;;5110935;28;20040;-77
2022/05/22 05:12:52;;;;;;;2.05;0.95;;;9.60;99.90;;;;;;5110356;28;20054;-77
2022/05/22 05:15:20;;;;;;;1.55;0.70;;;9.70;99.90;;;;;;5110359;28;20047;-77
2022/05/22 05:17:47;;;;;;;1.33;0.75;;;9.80;99.90;;;;;;5110398;28;20051;-77
2022/05/22 05:20:23;;;;;;;1.23;0.60;;;9.80;99.90;;;;;;5111583;28;20035;-77
2022/05/22 05:22:48;;;;;;;0.57;0.43;;;9.90;99.90;;;;;;5093429;28;20467;-77
2022/05/22 05:25:15;;;;;;;1.25;0.60;;;10.00;99.90;;;;;;5093251;28;20071;-77
2022/05/22 05:27:40;;;;;;;2.85;1.08;;;10.10;99.90;;;;;;5110468;28;20468;-77
2022/05/22 05:30:07;;;;;;;2.90;1.10;;;10.10;99.90;;;;;;5110455;28;20039;-77
2022/05/22 05:32:33;;;;;;;2.08;0.90;;;10.20;99.90;;;;;;5093697;28;20040;-77
2022/05/22 05:35:06;;;;;;;3.45;1.38;;;10.30;99.90;;;;;;5092879;28;20395;-77
2022/05/22 05:37:32;;;;;;;2.92;1.58;;;10.40;99.90;;;;;;5110158;28;20039;-78
2022/05/22 05:39:58;;;;;;;4.00;1.45;;;10.60;99.90;;;;;;5093160;28;20044;-77
2022/05/22 05:42:24;;;;;;;2.17;1.40;;;10.70;99.90;;;;;;5110016;28;20035;-77
2022/05/22 05:44:51;;;;;;;4.70;1.75;;;10.90;99.90;;;;;;5111626;28;20148;-77
2022/05/22 05:47:17;;;;;;;4.07;1.52;;;11.00;99.90;;;;;;5114242;28;20343;-78
2022/05/22 05:49:43;;;;;;;3.03;1.52;;;11.20;99.90;;;;;;5114424;28;20046;-78
2022/05/22 05:52:08;;;;;;;4.15;2.10;;;11.30;99.90;;;;;;5105249;28;20382;-78
2022/05/22 05:54:34;;;;;;;5.18;1.65;;;11.50;99.90;;;;;;5101860;28;20044;-72
2022/05/22 05:57:00;;;;;;;4.53;1.90;;;11.80;99.90;;;;;;5097229;28;20043;-73
2022/05/22 05:59:27;;;;;;;3.60;1.85;;;12.20;99.90;;;;;;5094986;28;20048;-72
2022/05/22 06:01:53;;;;;;;5.07;2.45;;;12.50;99.90;;;;;;5103674;28;20054;-72
2022/05/22 06:04:21;;;;;;;5.32;2.20;;;12.70;99.90;;;;;;5083040;28;20044;-74
2022/05/22 06:06:47;;;;;;;4.75;1.88;;;12.90;99.90;;;;;;5102750;28;20128;-72
2022/05/22 06:09:13;;;;;;;4.43;1.65;;;13.20;99.90;;;;;;5108884;28;20475;-72
2022/05/22 06:11:38;;;;;;;3.97;1.60;;;13.60;99.90;;;;;;5077934;28;20036;-72
2022/05/22 06:14:04;;;;;;;4.20;1.73;;;13.90;99.90;;;;;;5107835;28;20043;-72
2022/05/22 06:16:31;;;;;;;5.75;2.10;;;14.30;99.90;;;;;;5095085;28;20150;-73
2022/05/22 06:18:57;;;;;;;4.25;1.92;;;14.50;99.90;;;;;;5099396;28;20051;-73
2022/05/22 06:21:22;;;;;;;4.35;1.80;;;14.70;99.90;;;;;;5113561;28;20047;-73
2022/05/22 06:23:49;;;;;;;6.30;2.15;;;15.00;99.90;;;;;;5109404;28;20043;-73
2022/05/22 06:26:20;;;;;;;7.65;2.45;;;15.30;99.90;;;;;;5093274;28;20040;-73
2022/05/22 06:28:46;;;;;;;9.10;2.70;;;15.20;99.90;;;;;;5094599;28;20428;-73
2022/05/22 06:31:13;;;;;;;4.10;1.90;;;15.00;99.90;;;;;;5093332;28;20412;-73
2022/05/22 06:33:39;;;;;;;6.25;2.05;;;14.90;99.90;;;;;;5093773;28;20054;-73
2022/05/22 06:36:14;;;;;;;3.70;1.65;;;14.80;99.90;;;;;;5113333;28;20048;-73
2022/05/22 06:41:25;;;;;;;4.72;2.08;;;14.60;99.90;;;;;;5111731;28;20179;-73
2022/05/22 06:43:51;;;;;;;8.88;2.75;;;14.60;99.90;;;;;;5113493;28;20153;-73
2022/05/22 06:46:30;;;;;;;6.18;2.17;;;14.60;99.90;;;;;;5113301;28;20055;-74
2022/05/22 06:48:57;;;;;;;5.80;2.25;;;14.90;99.90;;;;;;5113164;28;20138;-74
2022/05/22 06:51:23;;;;;;;5.20;2.30;;;15.10;99.90;;;;;;5113289;28;20043;-73
2022/05/22 06:53:51;;;;;;;6.25;2.42;;;15.20;99.90;;;;;;5111326;28;20043;-73
2022/05/22 06:56:17;;;;;;;5.03;2.40;;;15.30;99.90;;;;;;5096249;28;20051;-73
2022/05/22 06:58:43;;;;;;;5.28;2.30;;;15.20;99.90;;;;;;5113093;28;20413;-73
2022/05/22 07:01:08;;;;;;;5.70;2.25;;;15.40;99.90;;;;;;5111225;28;20070;-73
2022/05/22 07:03:37;;;;;;;3.85;1.58;;;15.60;99.90;;;;;;5083590;28;20054;-73
2022/05/22 07:06:03;;;;;;;4.07;1.20;;;15.80;99.90;;;;;;5110174;28;20052;-72
2022/05/22 07:08:29;;;;;;;2.50;1.33;;;16.00;99.90;;;;;;5111921;28;20101;-72
2022/05/22 07:13:38;;;;;;;3.95;1.20;;;16.30;99.90;;;;;;5108465;28;20046;-72
2022/05/22 07:16:05;;;;;;;4.43;1.40;;;16.60;99.90;;;;;;5093281;28;20044;-73
2022/05/22 07:18:31;;;;;;;6.95;2.10;;;16.70;99.90;;;;;;5093592;28;20574;-75
2022/05/22 07:20:57;;;;;;;;;;;16.50;99.90;;;;;;5093579;28;20070;-74
2022/05/22 07:23:23;;;;;;;5.00;1.50;;;16.40;99.90;;;;;;5092494;28;19932;-73
2022/05/22 07:25:51;;;;;;;3.63;1.20;;;16.70;99.90;;;;;;5094550;28;20145;-74
2022/05/22 07:28:17;;;;;;;4.20;1.10;;;16.80;99.90;;;;;;5093602;28;20047;-74
2022/05/22 07:30:43;;;;;;;3.58;1.25;;;17.00;99.90;;;;;;5092812;28;20039;-74
2022/05/22 07:33:09;;;;;;;5.10;1.52;;;17.30;99.90;;;;;;5076308;28;20418;-74
2022/05/22 07:35:34;;;;;;;5.10;1.60;;;17.60;99.90;;;;;;5092224;28;20048;-74
2022/05/22 07:38:01;;;;;;;3.83;1.17;;;18.00;99.90;;;;;;5100312;27;20071;-74
2022/05/22 07:40:28;;;;;;;4.28;1.48;;;18.20;99.90;;;;;;5112064;28;20130;-74
2022/05/22 07:42:54;;;;;;;3.47;1.10;;;18.40;99.90;;;;;;5105365;28;20047;-73
2022/05/22 07:45:20;;;;;;;5.05;1.30;;;18.30;99.90;;;;;;5094825;28;20036;-73
2022/05/22 07:47:45;;;;;;;3.92;1.42;;;18.00;99.90;;;;;;5091619;28;20047;-73
2022/05/22 07:50:17;;;;;;;2.55;0.93;;;18.00;99.90;;;;;;5103328;28;20483;-73
2022/05/22 07:52:45;;;;;;;8.52;2.63;;;18.20;99.90;;;;;;5078119;28;20044;-73
2022/05/22 07:55:15;;;;;;;6.22;1.80;;;17.70;99.90;;;;;;5087012;28;20044;-78
2022/05/22 07:57:42;;;;;;;3.38;1.40;;;17.70;99.90;;;;;;5091504;28;20055;-78
2022/05/22 08:00:09;;;;;;;4.35;1.10;;;17.80;99.90;;;;;;5111089;28;20097;-77
2022/05/22 08:02:35;;;;;;;4.82;1.33;;;17.90;99.90;;;;;;5108383;28;20390;-79
2022/05/22 08:05:01;;;;;;;;;;;18.10;99.90;;;;;;5095284;28;20048;-77
2022/05/22 08:07:27;;;;;;;3.53;1.05;;;18.30;99.90;;;;;;5093954;28;20628;-80
2022/05/22 08:09:52;;;;;;;;;;;18.60;99.90;;;;;;5094761;28;20108;-79
2022/05/22 08:12:18;;;;;;;3.00;1.00;;;18.80;99.90;;;;;;5099291;28;19919;-78
2022/05/22 08:14:47;;;;;;;3.33;0.88;;;19.10;99.90;;;;;;5094562;28;20126;-78
2022/05/22 08:17:13;;;;;;;2.92;0.73;;;19.20;99.90;;;;;;5101587;28;20115;-77
2022/05/22 08:19:38;;;;;;;;;;;19.50;99.90;;;;;;5099825;28;20123;-78
2022/05/22 08:22:04;;;;;;;3.33;0.80;;;19.60;99.90;;;;;;5111513;28;19919;-77
2022/05/22 08:24:30;;;;;;;;;;;19.40;99.70;;;;;;5094543;28;20058;-77
2022/05/22 08:26:55;;;;;;;2.25;0.80;;;19.00;99.90;;;;;;5093354;28;19967;-77
2022/05/22 08:29:21;;;;;;;;;;;19.00;99.90;;;;;;5099138;28;20100;-73
2022/05/22 08:31:46;;;;;;;5.28;1.08;;;19.10;99.90;;;;;;5112676;28;19966;-73
2022/05/22 08:34:13;;;;;;;;;;;19.20;99.90;;;;;;5100761;28;20040;-73
2022/05/22 08:36:39;;;;;;;3.70;1.00;;;19.60;99.90;;;;;;5119404;27;19923;-72
2022/05/22 08:39:05;;;;;;;;;;;19.70;99.90;;;;;;5091065;28;20274;-73
2022/05/22 08:41:41;;;;;;;4.47;1.30;;;19.70;99.90;;;;;;5092461;28;19920;-73
2022/05/22 08:44:22;;;;;;;4.97;1.08;;;19.20;99.90;;;;;;5110585;28;20122;-73
2022/05/22 08:47:18;;;;;;;3.17;1.00;;;19.20;99.90;;;;;;5110049;28;20328;-73
2022/05/22 08:49:49;;;;;;;2.70;0.90;;;19.30;99.90;;;;;;5109332;28;20044;-73
2022/05/22 08:52:34;;;;;;;4.53;1.27;;;19.50;99.90;;;;;;5110432;28;20043;-73
2022/05/22 08:55:09;;;;;;;5.13;1.60;;;19.80;99.90;;;;;;5110650;28;20511;-73
2022/05/22 09:00:40;;;;;;;2.90;1.13;;;18.80;99.90;;;;;;5110587;28;20052;-73
2022/05/22 09:03:18;;;;;;;3.20;0.88;;;18.10;99.90;;;;;;5110975;28;20043;-73
2022/05/22 09:05:50;;;;;;;3.20;0.80;;;18.60;99.90;;;;;;5111710;28;20068;-72
2022/05/22 09:08:26;;;;;;;5.60;1.23;;;19.10;99.90;;;;;;5110934;28;20054;-73
2022/05/22 09:11:10;;;;;;;4.50;0.95;;;18.90;99.90;;;;;;5108784;28;20043;-73
2022/05/22 09:14:09;;;;;;;2.90;0.73;;;19.30;99.70;;;;;;5101643;28;20044;-73
2022/05/22 09:17:03;;;;;;;2.45;0.93;;;19.60;99.70;;;;;;5093651;28;20119;-72
2022/05/22 09:19:58;;;;;;;5.88;4.00;;;20.00;99.60;;;;;;5106063;28;20052;-73
2022/05/22 09:22:35;;;;;;;5.85;3.40;;;20.50;98.30;;;;;;5093573;28;20047;-73
2022/05/22 09:25:22;;;;;;;4.03;1.85;;;20.20;96.20;;;;;;5110542;28;20058;-73
2022/05/22 09:28:26;;;;;;;3.03;1.10;;;20.30;96.30;;;;;;5092948;28;20494;-72
2022/05/22 09:31:10;;;;;;;5.35;1.30;;;20.70;97.60;;;;;;5091666;28;20047;-73
2022/05/22 09:34:01;;;;;;;2.50;1.00;;;20.40;95.10;;;;;;5110643;28;20142;-73
2022/05/22 09:36:57;;;;;;;4.63;1.30;;;20.70;96.90;;;;;;5110256;28;20043;-73
2022/05/22 09:39:47;;;;;;;5.60;1.45;;;20.50;96.10;;;;;;5093205;28;20406;-73
2022/05/22 09:42:44;;;;;;;4.47;1.02;;;20.00;95.20;;;;;;5110055;28;20051;-73
2022/05/22 09:45:18;;;;;;;2.95;1.00;;;20.60;95.50;;;;;;5109021;28;20044;-72
2022/05/22 09:47:58;;;;;;;2.72;1.00;;;20.40;94.60;;;;;;5110108;28;20047;-72
2022/05/22 09:50:24;;;;;;;3.22;0.98;;;20.40;94.50;;;;;;5109923;28;20046;-73
2022/05/22 09:52:50;;;;;;;3.63;1.08;;;20.80;95.80;;;;;;5110117;28;20032;-74
2022/05/22 09:55:30;;;;;;;3.28;0.95;;;21.00;95.80;;;;;;5092855;28;20501;-73
2022/05/22 09:58:47;;;;;;;4.43;0.82;;;21.30;93.00;;;;;;5109396;28;20036;-72
2022/05/22 10:01:39;;;;;;;2.22;0.90;;;21.50;94.50;;;;;;5065112;28;20239;-72
2022/05/22 10:04:30;;;;;;;4.03;0.95;;;21.50;93.10;;;;;;5109017;28;20135;-71
2022/05/22 10:07:04;;;;;;;4.40;1.15;;;21.80;92.30;;;;;;5105658;28;20108;-72
2022/05/22 10:10:29;;;;;;;1.90;0.80;;;21.50;92.80;;;;;;5109606;28;20039;-72
2022/05/22 10:13:16;;;;;;;3.55;1.02;;;22.00;94.40;;;;;;5032950;28;20048;-71
2022/05/22 10:16:27;;;;;;;4.32;1.10;;;21.60;92.10;;;;;;5098770;28;20092;-72
2022/05/22 10:19:17;;;;;;;3.15;1.10;;;21.70;92.20;;;;;;5071579;28;20056;-72
2022/05/22 10:21:49;;;;;;;3.17;1.05;;;22.00;92.00;;;;;;5104621;28;20539;-78
2022/05/22 10:24:43;;;;;;;2.45;0.70;;;22.10;92.30;;;;;;5099917;28;20458;-78
2022/05/22 10:27:21;;;;;;;1.90;0.90;;;22.10;91.30;;;;;;5097856;28;20063;-78
2022/05/22 10:30:11;;;;;;;2.53;0.80;;;22.30;90.80;;;;;;5104014;28;20501;-78
2022/05/22 10:32:59;;;;;;;2.25;0.60;;;22.50;90.50;;;;;;5105742;28;20036;-72
2022/05/22 10:35:45;;;;;;;2.60;0.73;;;22.50;90.30;;;;;;5106915;28;20043;-78
2022/05/22 10:38:46;;;;;;;3.22;0.90;;;22.70;90.50;;;;;;5096932;28;20068;-78
2022/05/22 10:44:26;;;;;;;2.58;0.93;;;22.10;91.70;;;;;;5103931;28;20071;-80
2022/05/22 10:46:56;;;;;;;4.10;1.35;;;22.30;91.80;;;;;;5112293;28;20043;-78
2022/05/22 10:49:34;;;;;;;2.17;0.80;;;21.80;89.70;;;;;;5095811;28;20058;-78
2022/05/22 10:52:02;;;;;;;2.00;0.90;;;22.10;91.20;;;;;;5114816;28;20035;-78
2022/05/22 10:54:44;;;;;;;3.10;0.90;;;21.90;90.50;;;;;;5096100;28;20044;-79
2022/05/22 10:57:19;;;;;;;3.38;1.00;;;22.00;91.00;;;;;;5108657;28;20364;-78
2022/05/22 10:59:47;;;;;;;2.10;0.90;;;21.20;90.50;;;;;;5078455;28;20031;-79
2022/05/22 11:02:26;;;;;;;1.75;0.70;;;21.10;91.90;;;;;;5108269;28;20082;-79
2022/05/22 11:04:55;;;;;;;2.78;0.50;;;21.60;93.10;;;;;;5108441;28;20071;-79
2022/05/22 11:07:33;;;;;;;2.88;0.95;;;21.50;90.80;;;;;;5107746;28;20214;-79
2022/05/22 11:10:21;;;;;;;2.40;0.80;;;21.50;91.20;;;;;;5106555;28;20356;-79
2022/05/22 11:12:59;;;;;;;2.60;1.13;;;21.90;91.50;;;;;;5076054;28;20040;-78
2022/05/22 11:15:31;;;;;;;2.35;0.70;;;22.10;91.10;;;;;;5108807;28;20040;-79
2022/05/22 11:18:07;;;;;;;2.58;0.80;;;22.40;89.70;;;;;;5105562;28;20036;-73
2022/05/22 11:20:45;;;;;;;1.73;0.68;;;22.50;87.10;;;;;;5111231;28;20077;-73
2022/05/22 11:23:29;;;;;;;3.17;0.80;;;23.00;91.20;;;;;;5109421;28;20044;-72
2022/05/22 11:26:08;;;;;;;3.20;1.00;;;23.30;90.20;;;;;;5095786;28;20452;-72
2022/05/22 11:29:00;;;;;;;2.55;0.80;;;23.20;83.50;;;;;;5082899;28;20126;-73
2022/05/22 11:31:31;;;;;;;1.65;0.60;;;23.60;85.20;;;;;;5103462;28;20568;-73
2022/05/22 11:34:14;;;;;;;1.80;0.70;;;23.80;85.00;;;;;;5103227;28;20453;-72
2022/05/22 11:36:46;;;;;;;2.10;0.68;;;24.00;86.80;;;;;;5110348;28;20044;-78
2022/05/22 11:39:17;;;;;;;2.88;1.00;;;24.20;84.70;;;;;;5105324;28;20090;-78
2022/05/22 11:41:50;;;;;;;1.83;0.75;;;24.40;83.10;;;;;;5111389;28;20463;-78
2022/05/22 11:44:34;;;;;;;3.38;0.88;;;24.50;81.20;;;;;;5109943;28;20491;-79
2022/05/22 11:47:28;;;;;;;2.25;0.80;;;24.20;77.60;;;;;;5105590;28;20118;-79
2022/05/22 11:50:12;;;;;;;1.55;0.68;;;24.00;80.10;;;;;;5099893;28;20067;-78
2022/05/22 11:53:06;;;;;;;1.98;0.70;;;23.90;84.10;;;;;;5111153;28;20042;-78
2022/05/22 11:55:57;;;;;;;3.53;1.08;;;24.20;84.60;;;;;;5110111;28;20036;-78
2022/05/22 11:59:02;;;;;;;1.98;0.90;;;24.40;84.40;;;;;;5093634;28;20043;-79
2022/05/22 12:01:37;;;;;;;1.45;0.50;;;24.10;83.10;;;;;;5095252;28;20044;-74
2022/05/22 12:04:13;;;;;;;1.13;0.50;;;24.20;85.60;;;;;;5109977;27;20407;-74
2022/05/22 12:06:41;;;;;;;2.50;0.82;;;24.40;83.30;;;;;;5090227;28;20040;-74
2022/05/22 12:09:28;;;;;;;1.00;0.50;;;24.40;80.40;;;;;;5097933;28;20047;-72
2022/05/22 12:12:05;;;;;;;2.83;0.80;;;24.10;80.90;;;;;;5115443;27;20517;-72
2022/05/22 12:14:47;;;;;;;2.05;0.70;;;23.80;84.30;;;;;;5110961;27;20480;-72
2022/05/22 12:17:21;;;;;;;1.52;0.75;;;23.10;84.10;;;;;;5097028;28;20119;-72
2022/05/22 12:20:00;;;;;;;2.45;0.80;;;22.80;83.70;;;;;;5087692;27;20059;-72
2022/05/22 12:25:17;;;;;;;2.35;0.88;;;21.90;87.30;;;;;;5096820;28;20411;-72
2022/05/22 12:27:43;;;;;;;2.55;0.82;;;22.20;86.00;;;;;;5105285;28;20127;-78
2022/05/22 12:30:26;;;;;;;3.42;0.80;;;22.80;88.20;;;;;;5105917;28;20123;-78
2022/05/22 12:32:59;;;;;;;2.20;0.50;;;23.40;85.20;;;;;;5109941;28;20808;-78
2022/05/22 12:35:26;;;;;;;2.03;0.70;;;23.60;84.70;;;;;;5110806;28;20555;-78
2022/05/22 12:37:56;;;;;;;3.05;0.60;;;23.30;84.70;;;;;;5110421;27;20048;-78
2022/05/22 12:40:39;;;;;;;1.25;0.50;;;23.10;83.70;;;;;;5103505;28;20351;-78
2022/05/22 12:43:06;;;;;;;2.20;0.60;;;22.70;85.90;;;;;;5095869;28;20048;-78
2022/05/22 12:45:33;;;;;;;1.13;0.32;;;22.50;85.70;;;;;;5093320;28;20093;-73
2022/05/22 12:48:33;;;;;;;1.15;0.30;;;22.20;87.10;;;;;;5095427;28;20039;-74
2022/05/22 12:51:08;;;;;;;1.42;0.32;;;22.00;90.10;;;;;;5094315;28;20048;-74
2022/05/22 12:53:37;;;;;;;1.40;0.50;;;22.00;89.30;;;;;;5091520;28;20044;-73
2022/05/22 12:56:44;;;;;;;1.67;0.60;;;22.10;89.80;;;;;;5101300;28;20036;-73
2022/05/22 12:59:21;;;;;;;1.60;0.70;;;22.20;88.00;;;;;;5089623;28;20048;-74
2022/05/22 13:01:48;;;;;;;;;;;22.20;89.70;;;;;;5097942;28;20522;-73
2022/05/22 13:04:23;;;;;;;1.58;0.57;;;22.20;89.40;;;;;;5089629;28;19920;-74
2022/05/22 13:07:07;;;;;;;1.58;0.60;;;22.30;89.10;;;;;;5091685;28;20119;-74
2022/05/22 13:09:33;;;;;;;1.75;0.75;;;22.20;88.80;;;;;;5091046;28;20044;-74
2022/05/22 13:12:18;;;;;;;1.50;0.60;;;22.20;87.90;;;;;;5091345;28;20055;-74
2022/05/22 13:14:47;;;;;;;1.27;0.50;;;22.10;86.90;;;;;;5094616;28;20048;-74
2022/05/22 13:17:18;;;;;;;1.35;0.50;;;22.20;88.50;;;;;;5084836;28;20119;-73
2022/05/22 13:19:50;;;;;;;3.17;0.77;;;22.20;87.90;;;;;;5092473;28;20372;-74
2022/05/22 13:22:34;;;;;;;2.25;0.70;;;22.10;89.90;;;;;;5096342;28;20126;-74
2022/05/22 13:25:01;;;;;;;2.47;0.88;;;22.20;88.90;;;;;;5074908;28;20384;-73
2022/05/22 13:27:30;;;;;;;1.75;0.60;;;22.40;88.80;;;;;;5094629;28;20123;-73
2022/05/22 13:30:02;;;;;;;2.20;0.70;;;22.90;88.30;;;;;;5093925;28;20032;-73
2022/05/22 13:32:41;;;;;;;1.50;0.52;;;23.00;86.00;;;;;;5096694;28;20097;-79
2022/05/22 13:35:15;;;;;;;1.25;0.60;;;23.30;86.80;;;;;;5075297;28;20046;-79
2022/05/22 13:37:47;;;;;;;2.83;0.65;;;23.50;86.40;;;;;;5092618;28;20044;-72